createdAt,value
2019-03-27T00:00:10.226Z,71.11
2019-03-27T00:00:50.644Z,71.2
2019-03-27T00:01:31.059Z,71.11
2019-03-27T00:02:11.453Z,71.68
2019-03-27T00:02:51.876Z,70.92
2019-03-27T00:03:32.310Z,71.11
2019-03-27T00:04:12.738Z,70.72
2019-03-27T00:04:53.158Z,70.82
2019-03-27T00:05:33.549Z,70.92
2019-03-27T00:06:13.966Z,70.82
2019-03-27T00:06:54.390Z,70.82
2019-03-27T00:07:34.811Z,70.82
2019-03-27T00:08:15.219Z,70.72
2019-03-27T00:08:55.653Z,70.72
2019-03-27T00:09:36.098Z,70.53
2019-03-27T00:10:16.515Z,71.2
2019-03-27T00:10:56.930Z,71.2
2019-03-27T00:11:37.339Z,71.11
2019-03-27T00:12:17.752Z,71.01
2019-03-27T00:12:58.208Z,70.82
2019-03-27T00:13:38.645Z,70.53
2019-03-27T00:14:19.058Z,70.72
2019-03-27T00:15:11.830Z,70.72
2019-03-27T00:15:39.887Z,70.63
2019-03-27T00:16:20.284Z,70.92
2019-03-27T00:17:00.723Z,70.44
2019-03-27T00:17:41.136Z,70.63
2019-03-27T00:18:21.551Z,70.34
2019-03-27T00:19:01.973Z,69.87
2019-03-27T00:19:42.397Z,69.87
2019-03-27T00:20:22.789Z,69.87
2019-03-27T00:21:03.264Z,70.53
2019-03-27T00:21:43.647Z,70.34
2019-03-27T00:22:24.084Z,70.34
2019-03-27T00:23:04.518Z,70.25
2019-03-27T00:23:44.928Z,70.34
2019-03-27T00:24:25.344Z,70.34
2019-03-27T00:25:05.770Z,69.96
2019-03-27T00:25:46.232Z,70.34
2019-03-27T00:26:26.651Z,70.31
2019-03-27T00:27:07.114Z,70.78
2019-03-27T00:27:47.532Z,71.26
2019-03-27T00:28:27.974Z,71.73
2019-03-27T00:29:08.387Z,71.64
2019-03-27T00:29:48.815Z,72.41
2019-03-27T00:30:29.218Z,72.12
2019-03-27T00:31:11.796Z,72.02
2019-03-27T00:31:50.069Z,72.5
2019-03-27T00:32:30.480Z,72.41
2019-03-27T00:33:10.902Z,72.21
2019-03-27T00:33:51.310Z,72.41
2019-03-27T00:34:31.773Z,72.69
2019-03-27T00:35:12.182Z,73.17
2019-03-27T00:35:52.584Z,72.5
2019-03-27T00:36:33.044Z,72.97
2019-03-27T00:37:13.461Z,72.78
2019-03-27T00:37:53.879Z,72.69
2019-03-27T00:38:34.288Z,72.5
2019-03-27T00:39:14.727Z,72.5
2019-03-27T00:39:55.145Z,72.41
2019-03-27T00:40:35.563Z,72.69
2019-03-27T00:41:15.976Z,72.63
2019-03-27T00:41:56.394Z,72.16
2019-03-27T00:42:36.875Z,72.06
2019-03-27T00:43:17.278Z,71.77
2019-03-27T00:43:57.707Z,71.58
2019-03-27T00:44:38.113Z,71.77
2019-03-27T00:45:26.194Z,71.3
2019-03-27T00:45:58.942Z,71.11
2019-03-27T00:46:39.332Z,70.82
2019-03-27T00:47:19.768Z,70.72
2019-03-27T00:48:00.210Z,70.53
2019-03-27T00:48:40.609Z,70.15
2019-03-27T00:49:21.021Z,69.87
2019-03-27T00:50:01.442Z,69.52
2019-03-27T00:50:42.047Z,69.62
2019-03-27T00:51:22.475Z,69.71
2019-03-27T00:52:02.906Z,69.23
2019-03-27T00:52:43.376Z,69.43
2019-03-27T00:53:23.741Z,69.81
2019-03-27T00:54:04.154Z,69.14
2019-03-27T00:54:44.576Z,69.04
2019-03-27T00:55:25.013Z,69.04
2019-03-27T00:56:05.431Z,68.95
2019-03-27T00:56:45.893Z,68.95
2019-03-27T00:57:26.280Z,69.14
2019-03-27T00:58:06.721Z,69.14
2019-03-27T00:58:47.139Z,69.04
2019-03-27T00:59:27.567Z,69.33
2019-03-27T01:00:07.972Z,69.14
2019-03-27T01:00:48.423Z,69.04
2019-03-27T01:01:28.847Z,68.95
2019-03-27T01:02:09.219Z,68.95
2019-03-27T01:02:49.636Z,68.85
2019-03-27T01:03:30.051Z,68.95
2019-03-27T01:04:10.467Z,69.33
2019-03-27T01:04:50.893Z,68.95
2019-03-27T01:05:31.327Z,69.52
2019-03-27T01:06:11.738Z,69.33
2019-03-27T01:06:52.181Z,69.04
2019-03-27T01:07:32.605Z,69.62
2019-03-27T01:08:13.028Z,69.48
2019-03-27T01:08:53.430Z,69.52
2019-03-27T01:09:33.860Z,69.58
2019-03-27T01:10:14.298Z,69.39
2019-03-27T01:10:54.731Z,69.01
2019-03-27T01:11:35.145Z,69.39
2019-03-27T01:12:15.571Z,69.58
2019-03-27T01:12:55.990Z,69.96
2019-03-27T01:13:36.409Z,69.87
2019-03-27T01:14:16.846Z,69.87
2019-03-27T01:14:57.258Z,70.34
2019-03-27T01:15:39.887Z,70.34
2019-03-27T01:16:18.105Z,69.96
2019-03-27T01:16:58.524Z,70.44
2019-03-27T01:17:38.950Z,70.53
2019-03-27T01:18:19.379Z,70.34
2019-03-27T01:18:59.812Z,70.06
2019-03-27T01:19:40.276Z,70.63
2019-03-27T01:20:20.663Z,70.53
2019-03-27T01:21:01.071Z,70.15
2019-03-27T01:21:41.487Z,69.87
2019-03-27T01:22:21.911Z,69.48
2019-03-27T01:23:02.309Z,69.96
2019-03-27T01:23:42.735Z,69.43
2019-03-27T01:24:23.144Z,69.62
2019-03-27T01:25:03.552Z,69.43
2019-03-27T01:25:43.969Z,68.95
2019-03-27T01:26:24.385Z,68.76
2019-03-27T01:27:04.799Z,68.76
2019-03-27T01:27:45.229Z,69.23
2019-03-27T01:28:25.623Z,68.91
2019-03-27T01:29:06.013Z,68.72
2019-03-27T01:29:46.419Z,68.95
2019-03-27T01:30:26.827Z,68.95
2019-03-27T01:31:07.244Z,69.04
2019-03-27T01:31:47.658Z,68.63
2019-03-27T01:32:28.067Z,68.91
2019-03-27T01:33:08.458Z,68.72
2019-03-27T01:33:48.866Z,69.58
2019-03-27T01:34:29.290Z,69.58
2019-03-27T01:35:09.705Z,68.85
2019-03-27T01:35:50.134Z,69.29
2019-03-27T01:36:30.562Z,68.76
2019-03-27T01:37:10.996Z,69.23
2019-03-27T01:37:51.418Z,69.04
2019-03-27T01:38:31.843Z,68.47
2019-03-27T01:39:12.277Z,68.38
2019-03-27T01:39:52.681Z,68.76
2019-03-27T01:40:33.115Z,68.95
2019-03-27T01:41:13.557Z,68.15
2019-03-27T01:41:53.964Z,68.57
2019-03-27T01:42:34.360Z,68.66
2019-03-27T01:43:14.777Z,68.47
2019-03-27T01:43:55.220Z,68.76
2019-03-27T01:44:35.624Z,68.72
2019-03-27T01:45:16.051Z,68.53
2019-03-27T01:45:56.468Z,68.63
2019-03-27T01:46:36.889Z,68.72
2019-03-27T01:47:17.339Z,68.82
2019-03-27T01:47:57.765Z,68.63
2019-03-27T01:48:38.191Z,68.34
2019-03-27T01:49:18.626Z,69.1
2019-03-27T01:49:59.034Z,69.39
2019-03-27T01:50:39.444Z,70.5
2019-03-27T01:51:19.859Z,70.31
2019-03-27T01:52:00.284Z,71.17
2019-03-27T01:52:40.712Z,71.73
2019-03-27T01:53:21.139Z,71.55
2019-03-27T01:54:01.552Z,71.45
2019-03-27T01:54:41.987Z,72.41
2019-03-27T01:55:22.385Z,72.5
2019-03-27T01:56:02.813Z,72.12
2019-03-27T01:56:43.240Z,72.12
2019-03-27T01:57:23.670Z,72.31
2019-03-27T01:58:04.133Z,72.21
2019-03-27T01:58:44.563Z,72.88
2019-03-27T01:59:24.997Z,72.31
2019-03-27T02:00:05.419Z,72.41
2019-03-27T02:00:45.843Z,72.6
2019-03-27T02:01:26.284Z,72.5
2019-03-27T02:02:06.667Z,72.6
2019-03-27T02:02:47.106Z,72.88
2019-03-27T02:03:27.524Z,72.69
2019-03-27T02:04:07.937Z,73.17
2019-03-27T02:04:48.353Z,72.97
2019-03-27T02:05:28.767Z,72.88
2019-03-27T02:06:09.212Z,72.69
2019-03-27T02:06:49.599Z,72.97
2019-03-27T02:07:30.024Z,73.26
2019-03-27T02:08:10.462Z,72.69
2019-03-27T02:08:50.883Z,72.69
2019-03-27T02:09:31.314Z,72.41
2019-03-27T02:10:11.762Z,72.5
2019-03-27T02:10:52.145Z,72.31
2019-03-27T02:11:32.568Z,72.5
2019-03-27T02:12:13.005Z,72.02
2019-03-27T02:12:53.410Z,71.45
2019-03-27T02:13:33.872Z,71.64
2019-03-27T02:14:14.300Z,71.26
2019-03-27T02:14:54.739Z,71.55
2019-03-27T02:15:35.125Z,71.64
2019-03-27T02:16:15.547Z,71.64
2019-03-27T02:16:55.981Z,71.64
2019-03-27T02:17:36.419Z,72.12
2019-03-27T02:18:16.846Z,72.41
2019-03-27T02:18:57.236Z,72.5
2019-03-27T02:19:37.668Z,72.31
2019-03-27T02:20:18.098Z,72.12
2019-03-27T02:20:58.496Z,71.87
2019-03-27T02:21:38.908Z,71.77
2019-03-27T02:22:19.360Z,71.58
2019-03-27T02:22:59.740Z,71.68
2019-03-27T02:23:40.243Z,71.77
2019-03-27T02:24:20.593Z,71.3
2019-03-27T02:25:01.030Z,71.2
2019-03-27T02:25:41.449Z,71.01
2019-03-27T02:26:21.844Z,70.53
2019-03-27T02:27:02.265Z,70.25
2019-03-27T02:27:42.732Z,70.34
2019-03-27T02:28:23.102Z,70.44
2019-03-27T02:29:03.494Z,70.25
2019-03-27T02:29:43.913Z,70.34
2019-03-27T02:30:24.322Z,70.53
2019-03-27T02:31:04.759Z,70.69
2019-03-27T02:31:45.167Z,71.11
2019-03-27T02:32:25.614Z,71.17
2019-03-27T02:33:06.052Z,71.55
2019-03-27T02:33:46.520Z,71.55
2019-03-27T02:34:26.891Z,71.83
2019-03-27T02:35:07.321Z,71.73
2019-03-27T02:35:47.730Z,72.41
2019-03-27T02:36:28.159Z,71.55
2019-03-27T02:37:08.599Z,72.12
2019-03-27T02:37:48.985Z,72.5
2019-03-27T02:38:29.398Z,72.5
2019-03-27T02:39:09.826Z,72.02
2019-03-27T02:39:50.255Z,71.64
2019-03-27T02:40:30.671Z,72.41
2019-03-27T02:41:11.115Z,72.41
2019-03-27T02:41:51.525Z,72.25
2019-03-27T02:42:31.933Z,71.96
2019-03-27T02:43:12.364Z,72.25
2019-03-27T02:43:52.755Z,71.3
2019-03-27T02:44:33.191Z,71.77
2019-03-27T02:45:13.608Z,71.68
2019-03-27T02:45:54.007Z,71.87
2019-03-27T02:46:34.394Z,71.68
2019-03-27T02:47:14.834Z,71.87
2019-03-27T02:47:55.315Z,71.39
2019-03-27T02:48:35.678Z,71.2
2019-03-27T02:49:16.143Z,70.92
2019-03-27T02:49:56.563Z,70.92
2019-03-27T02:50:36.998Z,70.25
2019-03-27T02:51:17.471Z,70.72
2019-03-27T02:51:57.902Z,70.34
2019-03-27T02:52:38.335Z,70.25
2019-03-27T02:53:18.754Z,70.25
2019-03-27T02:53:59.179Z,69.87
2019-03-27T02:54:39.626Z,70.06
2019-03-27T02:55:20.025Z,69.68
2019-03-27T02:56:00.500Z,69.68
2019-03-27T02:56:40.873Z,69.48
2019-03-27T02:57:21.313Z,70.06
2019-03-27T02:58:01.756Z,70.34
2019-03-27T02:59:49.421Z,70.92
2019-03-27T03:00:29.754Z,70.53
2019-03-27T03:01:10.183Z,70.53
2019-03-27T03:01:50.633Z,70.63
2019-03-27T03:02:30.998Z,70.44
2019-03-27T03:03:11.420Z,69.96
2019-03-27T03:03:51.883Z,69.68
2019-03-27T03:04:32.350Z,69.29
2019-03-27T03:05:12.853Z,69.48
2019-03-27T03:05:53.223Z,69.39
2019-03-27T03:06:33.620Z,69.96
2019-03-27T03:07:14.051Z,70.63
2019-03-27T03:07:54.467Z,70.72
2019-03-27T03:08:34.882Z,70.72
2019-03-27T03:09:15.318Z,70.34
2019-03-27T03:09:55.740Z,70.63
2019-03-27T03:10:36.164Z,71.01
2019-03-27T03:11:16.574Z,70.63
2019-03-27T03:11:57.016Z,70.44
2019-03-27T03:12:37.407Z,70.06
2019-03-27T03:13:17.826Z,70.53
2019-03-27T03:13:58.225Z,70.82
2019-03-27T03:14:38.636Z,70.44
2019-03-27T03:15:19.049Z,70.82
2019-03-27T03:15:59.462Z,70.44
2019-03-27T03:16:42.473Z,70.63
2019-03-27T03:17:20.287Z,71.26
2019-03-27T03:18:00.719Z,71.26
2019-03-27T03:18:41.141Z,71.55
2019-03-27T03:19:21.592Z,71.64
2019-03-27T03:20:01.971Z,72.02
2019-03-27T03:20:42.387Z,72.41
2019-03-27T03:21:22.795Z,73.13
2019-03-27T03:22:03.217Z,73.51
2019-03-27T03:22:43.753Z,73.32
2019-03-27T03:23:24.179Z,73.8
2019-03-27T03:24:04.571Z,74.46
2019-03-27T03:24:44.971Z,74.37
2019-03-27T03:25:25.396Z,74.27
2019-03-27T03:26:05.803Z,74.94
2019-03-27T03:26:50.430Z,75.13
2019-03-27T03:27:26.660Z,75.7
2019-03-27T03:28:07.066Z,75.7
2019-03-27T03:28:47.475Z,75.79
2019-03-27T03:29:27.902Z,75.51
2019-03-27T03:30:08.311Z,75.32
2019-03-27T03:30:48.775Z,75.04
2019-03-27T03:31:29.083Z,74.94
2019-03-27T03:32:09.513Z,74.75
2019-03-27T03:32:49.882Z,74.56
2019-03-27T03:33:30.299Z,74.69
2019-03-27T03:34:10.720Z,74.18
2019-03-27T03:34:51.132Z,74.56
2019-03-27T03:35:31.554Z,74.75
2019-03-27T03:36:11.999Z,74.37
2019-03-27T03:36:52.381Z,74.75
2019-03-27T03:37:32.808Z,74.84
2019-03-27T03:38:13.225Z,74.46
2019-03-27T03:38:53.685Z,74.18
2019-03-27T03:39:34.024Z,74.84
2019-03-27T03:40:14.440Z,75.13
2019-03-27T03:40:54.846Z,75.04
2019-03-27T03:41:35.258Z,75.04
2019-03-27T03:42:15.676Z,75.04
2019-03-27T03:42:56.079Z,74.94
2019-03-27T03:43:36.462Z,75.32
2019-03-27T03:44:16.969Z,75.7
2019-03-27T03:44:57.295Z,75.42
2019-03-27T03:45:37.770Z,75.7
2019-03-27T03:46:18.159Z,75.99
2019-03-27T03:47:00.328Z,76.75
2019-03-27T03:47:38.978Z,76.56
2019-03-27T03:48:19.395Z,76.46
2019-03-27T03:48:59.818Z,76.08
2019-03-27T03:49:40.276Z,76.27
2019-03-27T03:50:20.667Z,76.65
2019-03-27T03:51:01.098Z,75.99
2019-03-27T03:51:41.521Z,76.37
2019-03-27T03:52:21.925Z,76.37
2019-03-27T03:53:02.355Z,76.27
2019-03-27T03:53:42.829Z,75.79
2019-03-27T03:54:23.268Z,75.7
2019-03-27T03:55:03.641Z,75.23
2019-03-27T03:55:44.052Z,75.51
2019-03-27T03:56:24.493Z,75.13
2019-03-27T03:57:04.895Z,74.84
2019-03-27T03:57:45.334Z,75.13
2019-03-27T03:58:25.745Z,74.75
2019-03-27T03:59:06.155Z,74.75
2019-03-27T03:59:46.564Z,75.13
2019-03-27T04:00:26.975Z,75.13
2019-03-27T04:01:07.404Z,74.98
2019-03-27T04:01:47.852Z,74.21
2019-03-27T04:02:28.260Z,74.5
2019-03-27T04:03:08.694Z,74.31
2019-03-27T04:03:49.132Z,74.5
2019-03-27T04:04:29.569Z,74.5
2019-03-27T04:05:10.028Z,74.02
2019-03-27T04:05:50.430Z,73.93
2019-03-27T04:06:30.806Z,74.12
2019-03-27T04:07:11.241Z,73.83
2019-03-27T04:07:51.650Z,74.12
2019-03-27T04:08:32.085Z,73.83
2019-03-27T04:09:12.515Z,73.74
2019-03-27T04:09:52.950Z,73.55
2019-03-27T04:10:33.384Z,73.07
2019-03-27T04:11:13.797Z,73.93
2019-03-27T04:11:54.243Z,73.26
2019-03-27T04:12:34.644Z,73.36
2019-03-27T04:13:15.067Z,72.88
2019-03-27T04:13:55.485Z,72.88
2019-03-27T04:14:35.900Z,72.69
2019-03-27T04:15:16.318Z,72.97
2019-03-27T04:15:56.732Z,72.88
2019-03-27T04:16:37.137Z,72.69
2019-03-27T04:17:18.106Z,72.6
2019-03-27T04:17:58.006Z,73.26
2019-03-27T04:18:38.421Z,73.17
2019-03-27T04:19:19.005Z,73.07
2019-03-27T04:19:59.438Z,73.17
2019-03-27T04:20:39.839Z,73.17
2019-03-27T04:21:20.266Z,73.83
2019-03-27T04:22:00.694Z,73.65
2019-03-27T04:22:41.097Z,72.97
2019-03-27T04:23:21.528Z,73.55
2019-03-27T04:24:01.949Z,73.55
2019-03-27T04:24:42.391Z,73.8
2019-03-27T04:25:22.768Z,73.89
2019-03-27T04:26:09.423Z,73.89
2019-03-27T04:26:43.600Z,74.27
2019-03-27T04:27:24.028Z,75.04
2019-03-27T04:28:04.459Z,75.04
2019-03-27T04:28:44.847Z,75.04
2019-03-27T05:06:33.894Z,88.52
2019-03-27T05:07:14.349Z,88.33
2019-03-27T05:07:54.777Z,88.8
2019-03-27T05:08:35.214Z,88.61
2019-03-27T05:09:15.601Z,89.37
2019-03-27T05:09:55.990Z,88.52
2019-03-27T05:12:08.878Z,88.71
2019-03-27T05:12:49.211Z,88.42
2019-03-27T05:13:29.603Z,88.04
2019-03-27T05:14:09.999Z,88.71
2019-03-27T05:14:50.432Z,88.66
2019-03-27T05:15:30.838Z,88.75
2019-03-27T05:16:11.266Z,88.28
2019-03-27T05:16:51.678Z,88.28
2019-03-27T05:17:44.641Z,87.71
2019-03-27T05:18:12.517Z,87.42
2019-03-27T05:18:52.935Z,86.85
2019-03-27T05:19:33.353Z,86.38
2019-03-27T05:20:13.753Z,85.71
2019-03-27T05:20:54.153Z,84.76
2019-03-27T05:21:34.585Z,84.38
2019-03-27T05:22:14.982Z,84.47
2019-03-27T05:22:55.428Z,85.1
2019-03-27T05:23:35.825Z,86.28
2019-03-27T05:24:16.246Z,87.04
2019-03-27T05:24:56.645Z,87.95
2019-03-27T05:25:37.067Z,87.71
2019-03-27T05:26:17.514Z,86.99
2019-03-27T05:26:57.938Z,87.66
2019-03-27T05:27:38.377Z,87.61
2019-03-27T05:28:18.824Z,88.09
2019-03-27T05:28:59.279Z,88.56
2019-03-27T05:29:39.693Z,89.04
2019-03-27T05:30:20.131Z,88.56
2019-03-27T05:31:00.582Z,87.99
2019-03-27T05:31:41.004Z,86.66
2019-03-27T05:32:21.429Z,86.76
2019-03-27T05:33:01.893Z,86.94
2019-03-27T05:33:42.251Z,87.52
2019-03-27T05:34:22.691Z,88.09
2019-03-27T05:35:03.114Z,88.85
2019-03-27T05:35:43.654Z,88.66
2019-03-27T05:36:23.956Z,88.37
2019-03-27T05:37:04.376Z,87.61
2019-03-27T05:37:44.790Z,87.71
2019-03-27T05:38:25.218Z,88.56
2019-03-27T05:39:05.664Z,88.46
2019-03-27T05:39:46.092Z,88.37
2019-03-27T05:40:26.496Z,88.37
2019-03-27T05:41:06.911Z,88.28
2019-03-27T05:41:47.324Z,86.94
2019-03-27T05:42:27.801Z,86.66
2019-03-27T05:43:08.197Z,87.32
2019-03-27T05:43:48.655Z,87.85
2019-03-27T05:44:29.039Z,87.61
2019-03-27T05:45:09.467Z,89
2019-03-27T05:45:49.896Z,89.04
2019-03-27T05:46:30.335Z,89.51
2019-03-27T05:47:10.703Z,88.94
2019-03-27T05:47:59.172Z,88.46
2019-03-27T05:48:31.573Z,88.94
2019-03-27T05:49:12.050Z,89.37
2019-03-27T05:49:52.424Z,88.9
2019-03-27T05:50:32.818Z,88.9
2019-03-27T05:51:13.334Z,88.71
2019-03-27T05:51:53.686Z,88.13
2019-03-27T05:52:34.082Z,88.52
2019-03-27T05:53:14.484Z,88.71
2019-03-27T05:53:54.910Z,88.71
2019-03-27T05:54:35.316Z,88.23
2019-03-27T05:55:15.736Z,88.61
2019-03-27T05:55:56.122Z,89.85
2019-03-27T05:56:36.506Z,90.14
2019-03-27T05:57:16.905Z,90.33
2019-03-27T05:57:57.325Z,90.33
2019-03-27T05:58:37.745Z,91.08
2019-03-27T05:59:18.137Z,90.99
2019-03-27T05:59:58.535Z,91.22
2019-03-27T06:00:38.940Z,91.32
2019-03-27T06:01:19.365Z,91.42
2019-03-27T06:01:59.790Z,90.94
2019-03-27T06:02:40.204Z,90.84
2019-03-27T06:03:20.646Z,89.99
2019-03-27T06:04:01.056Z,89.04
2019-03-27T06:04:41.494Z,89.89
2019-03-27T06:05:21.907Z,89.32
2019-03-27T06:06:02.351Z,88.66
2019-03-27T06:06:42.769Z,89.04
2019-03-27T06:07:23.181Z,89.14
2019-03-27T06:08:03.642Z,89.32
2019-03-27T06:08:47.666Z,89.89
2019-03-27T06:09:28.179Z,90.37
2019-03-27T06:10:08.612Z,89.89
2019-03-27T06:10:49.041Z,89.61
2019-03-27T06:11:29.611Z,89.7
2019-03-27T06:12:10.044Z,89.14
2019-03-27T06:12:50.469Z,89.32
2019-03-27T06:13:30.897Z,88.94
2019-03-27T06:14:11.373Z,88.66
2019-03-27T06:14:51.767Z,88.37
2019-03-27T06:15:32.200Z,88.37
2019-03-27T06:16:12.627Z,87.99
2019-03-27T06:16:53.042Z,88.28
2019-03-27T06:17:33.467Z,87.99
2019-03-27T06:18:13.888Z,87.9
2019-03-27T06:18:54.294Z,87.71
2019-03-27T06:19:34.742Z,87.23
2019-03-27T06:20:15.128Z,86.9
2019-03-27T06:20:55.551Z,87.08
2019-03-27T06:21:35.959Z,87.08
2019-03-27T06:22:16.372Z,87.27
2019-03-27T06:22:56.801Z,86.7
2019-03-27T06:23:37.233Z,86.99
2019-03-27T06:24:18.716Z,86.61
2019-03-27T06:24:59.109Z,86.51
2019-03-27T06:25:39.583Z,86.13
2019-03-27T06:26:19.941Z,86.61
2019-03-27T06:27:00.348Z,86.61
2019-03-27T06:27:40.778Z,86.42
2019-03-27T06:28:21.203Z,86.61
2019-03-27T06:29:01.635Z,86.51
2019-03-27T06:29:42.039Z,86.42
2019-03-27T06:30:22.487Z,86.51
2019-03-27T06:31:03.418Z,86.61
2019-03-27T06:31:43.838Z,86.13
2019-03-27T06:32:24.273Z,85.94
2019-03-27T06:33:04.717Z,85.56
2019-03-27T06:33:45.087Z,85.47
2019-03-27T06:34:25.541Z,85.37
2019-03-27T06:35:05.939Z,84.27
2019-03-27T06:35:46.347Z,83.94
2019-03-27T06:36:26.754Z,84.42
2019-03-27T06:37:07.160Z,84.65
2019-03-27T06:37:47.572Z,84.23
2019-03-27T06:38:27.965Z,85.22
2019-03-27T06:39:08.373Z,84.84
2019-03-27T06:39:48.794Z,85.13
2019-03-27T06:40:29.163Z,84.84
2019-03-27T06:41:09.603Z,84.65
2019-03-27T06:41:50.005Z,84.27
2019-03-27T06:42:30.440Z,84.56
2019-03-27T06:43:10.854Z,84.36
2019-03-27T06:43:51.297Z,84.27
2019-03-27T06:44:31.717Z,83.22
2019-03-27T06:45:12.108Z,83.51
2019-03-27T06:45:52.572Z,83.13
2019-03-27T06:46:32.931Z,83.13
2019-03-27T06:47:13.347Z,83.32
2019-03-27T06:47:53.778Z,83.03
2019-03-27T06:48:34.152Z,82.84
2019-03-27T06:49:14.637Z,82.41
2019-03-27T06:49:55.517Z,82.46
2019-03-27T06:50:36.054Z,82.37
2019-03-27T06:51:16.593Z,82.12
2019-03-27T06:53:41.541Z,81.46
2019-03-27T06:54:21.879Z,80.79
2019-03-27T06:55:02.373Z,80.88
2019-03-27T06:55:42.763Z,80.22
2019-03-27T06:56:24.096Z,80.02
2019-03-27T06:57:04.602Z,79.64
2019-03-27T06:59:03.052Z,79.46
2019-03-27T06:59:43.318Z,79.17
2019-03-27T07:00:23.762Z,79.3
2019-03-27T07:01:04.197Z,78.73
2019-03-27T07:01:44.618Z,78.44
2019-03-27T07:02:28.572Z,78.44
2019-03-27T07:03:05.689Z,78.25
2019-03-27T07:03:46.305Z,78.35
2019-03-27T07:04:26.739Z,78.06
2019-03-27T07:05:07.107Z,77.87
2019-03-27T07:05:47.519Z,78.64
2019-03-27T07:06:28.981Z,77.59
2019-03-27T07:07:09.409Z,77.69
2019-03-27T07:07:49.822Z,77.78
2019-03-27T07:08:31.320Z,77.78
2019-03-27T07:09:11.075Z,77.78
2019-03-27T07:09:51.457Z,77.78
2019-03-27T07:10:31.992Z,77.49
2019-03-27T07:11:12.491Z,77.69
2019-03-27T07:11:52.989Z,77.87
2019-03-27T07:12:33.352Z,77.78
2019-03-27T07:13:13.990Z,77.87
2019-03-27T07:13:54.413Z,77.49
2019-03-27T07:14:34.924Z,76.96
2019-03-27T07:15:15.543Z,76.77
2019-03-27T07:15:56.235Z,76.77
2019-03-27T07:16:36.976Z,76.57
2019-03-27T07:17:19.225Z,76.77
2019-03-27T07:17:59.959Z,76.48
2019-03-27T07:20:18.842Z,76.96
2019-03-27T07:20:59.385Z,77.25
2019-03-27T07:21:40.008Z,77.34
2019-03-27T07:22:20.607Z,76.77
2019-03-27T07:23:00.939Z,76.29
2019-03-27T07:23:41.491Z,75.81
2019-03-27T07:24:22.315Z,76.1
2019-03-27T07:25:02.805Z,75.91
2019-03-27T07:25:43.128Z,75.81
2019-03-27T07:26:23.611Z,75.62
2019-03-27T07:27:05.681Z,74.9
2019-03-27T07:27:46.051Z,74.77
2019-03-27T07:29:35.020Z,74.19
2019-03-27T07:30:15.217Z,74.13
2019-03-27T07:30:55.737Z,74.01
2019-03-27T07:31:37.769Z,74.04
2019-03-27T07:32:18.149Z,73.66
2019-03-27T07:32:58.850Z,73.94
2019-03-27T07:33:39.101Z,73.75
2019-03-27T07:35:27.362Z,73.56
2019-03-27T07:36:09.342Z,73.56
2019-03-27T07:36:49.956Z,74.23
2019-03-27T07:37:31.778Z,73.85
2019-03-27T07:38:15.709Z,73.56
2019-03-27T07:39:10.184Z,73.28
2019-03-27T07:39:37.127Z,73.47
2019-03-27T07:40:17.655Z,73.56
2019-03-27T07:40:59.308Z,73.56
2019-03-27T07:41:40.668Z,73.56
2019-03-27T07:42:20.395Z,73.85
2019-03-27T07:43:01.856Z,73.28
2019-03-27T07:43:42.703Z,74.04
2019-03-27T07:44:22.855Z,73.66
2019-03-27T07:45:03.950Z,73.37
2019-03-27T07:45:44.458Z,73.47
2019-03-27T07:46:25.274Z,73.66
2019-03-27T07:47:06.674Z,73.75
2019-03-27T07:47:48.186Z,73.94
2019-03-27T07:48:28.178Z,73.75
2019-03-27T07:49:07.920Z,74.32
2019-03-27T07:49:48.563Z,74.04
2019-03-27T07:50:29.030Z,74.04
2019-03-27T07:51:09.503Z,74.23
2019-03-27T07:51:50.195Z,74.13
2019-03-27T07:52:30.752Z,74.23
2019-03-27T07:53:11.550Z,74.23
2019-03-27T07:53:53.336Z,74.23
2019-03-27T07:54:34.164Z,73.66
2019-03-27T07:55:19.459Z,73.75
2019-03-27T07:56:16.458Z,73.66
2019-03-27T07:57:02.490Z,73.37
2019-03-27T07:57:42.862Z,72.89
2019-03-27T07:58:23.384Z,72.61
2019-03-27T07:59:04.086Z,73.18
2019-03-27T07:59:44.519Z,72.89
2019-03-27T08:00:25.002Z,72.99
2019-03-27T08:01:06.153Z,73.37
2019-03-27T08:01:48.378Z,73.94
2019-03-27T08:02:28.611Z,74.23
2019-03-27T08:03:09.087Z,74.04
2019-03-27T08:03:49.700Z,74.13
2019-03-27T08:04:32.890Z,73.94
2019-03-27T08:05:13.571Z,74.23
2019-03-27T08:05:54.004Z,74.61
2019-03-27T08:06:34.501Z,74.04
2019-03-27T08:07:26.099Z,73.94
2019-03-27T08:07:56.324Z,74.23
2019-03-27T08:08:36.823Z,74.32
2019-03-27T08:09:17.436Z,73.75
2019-03-27T08:09:58.775Z,74.04
2019-03-27T08:10:46.288Z,74.71
2019-03-27T08:11:27.770Z,74.61
2019-03-27T08:12:07.687Z,74.13
2019-03-27T08:12:51.466Z,74.04
2019-03-27T08:13:31.917Z,74.23
2019-03-27T08:14:12.488Z,74.32
2019-03-27T08:14:53.255Z,74.61
2019-03-27T08:15:33.845Z,74.71
2019-03-27T08:16:14.292Z,74.13
2019-03-27T08:16:54.726Z,74.17
2019-03-27T08:17:35.341Z,73.88
2019-03-27T08:18:15.700Z,73.03
2019-03-27T08:19:06.831Z,73.41
2019-03-27T08:19:38.409Z,72.83
2019-03-27T08:21:13.430Z,72.17
2019-03-27T08:21:53.892Z,71.98
2019-03-27T08:22:34.320Z,72.36
2019-03-27T08:23:14.773Z,71.98
2019-03-27T08:23:55.180Z,71.78
2019-03-27T08:24:35.624Z,72.01
2019-03-27T08:25:16.131Z,71.34
2019-03-27T08:25:57.744Z,71.53
2019-03-27T08:26:38.149Z,70.96
2019-03-27T08:27:21.455Z,70.29
2019-03-27T08:27:59.063Z,70.01
2019-03-27T08:28:39.623Z,69.72
2019-03-27T08:29:20.120Z,69.91
2019-03-27T08:30:00.607Z,70.01
2019-03-27T08:30:42.094Z,69.91
2019-03-27T08:31:22.531Z,69.62
2019-03-27T08:32:02.949Z,69.91
2019-03-27T08:32:43.405Z,69.15
2019-03-27T08:33:23.850Z,68.76
2019-03-27T08:34:04.405Z,68.76
2019-03-27T08:34:44.962Z,68.76
2019-03-27T08:35:25.896Z,68.86
2019-03-27T08:36:06.566Z,69.05
2019-03-27T08:36:47.299Z,68.29
2019-03-27T08:37:28.214Z,68.38
2019-03-27T08:38:08.865Z,67.84
2019-03-27T08:38:49.417Z,68
2019-03-27T08:39:30.014Z,67.71
2019-03-27T08:40:10.384Z,67.91
2019-03-27T08:40:51.747Z,68
2019-03-27T08:41:32.240Z,67.52
2019-03-27T08:42:12.655Z,67.08
2019-03-27T08:42:53.097Z,67.08
2019-03-27T08:43:33.747Z,67.46
2019-03-27T08:44:14.425Z,67.08
2019-03-27T08:44:54.969Z,65.93
2019-03-27T08:45:36.150Z,65.45
2019-03-27T08:46:18.129Z,65.07
2019-03-27T08:46:58.657Z,64.98
2019-03-27T08:47:39.378Z,65.26
2019-03-27T08:48:25.697Z,64.91
2019-03-27T08:49:06.396Z,63.76
2019-03-27T08:49:46.343Z,63.29
2019-03-27T08:50:27.143Z,63.48
2019-03-27T08:51:09.232Z,63.45
2019-03-27T08:51:50.755Z,63.29
2019-03-27T08:52:31.706Z,63
2019-03-27T08:53:11.974Z,63.48
2019-03-27T08:53:52.600Z,64.15
2019-03-27T08:54:33.024Z,64.05
2019-03-27T08:55:13.961Z,64.05
2019-03-27T08:55:54.544Z,63.39
2019-03-27T08:56:35.105Z,63
2019-03-27T08:57:16.203Z,61.95
2019-03-27T08:57:57.062Z,62.52
2019-03-27T08:58:38.609Z,62.62
2019-03-27T08:59:19.690Z,62.62
2019-03-27T09:00:02.618Z,62.52
2019-03-27T09:00:41.285Z,61.85
2019-03-27T09:01:22.729Z,61.57
2019-03-27T09:02:02.883Z,60.9
2019-03-27T09:02:43.346Z,61.19
2019-03-27T09:03:24.009Z,61.57
2019-03-27T09:04:07.620Z,61.41
2019-03-27T09:04:48.326Z,60.06
2019-03-27T09:05:29.065Z,59.88
2019-03-27T09:06:09.333Z,59.78
2019-03-27T09:06:50.306Z,60.16
2019-03-27T09:07:32.927Z,59.97
2019-03-27T09:08:12.507Z,59.88
2019-03-27T09:10:11.213Z,58.63
2019-03-27T09:10:54.237Z,58.83
2019-03-27T09:11:34.814Z,58.63
2019-03-27T09:12:15.633Z,58.73
2019-03-27T09:12:57.253Z,58.95
2019-03-27T09:13:37.229Z,58.56
2019-03-27T09:14:17.997Z,56.75
2019-03-27T09:14:58.591Z,56.94
2019-03-27T09:15:39.152Z,56.94
2019-03-27T09:16:20.580Z,56.46
2019-03-27T09:17:00.482Z,55.6
2019-03-27T09:17:41.153Z,55.41
2019-03-27T09:18:22.083Z,54.83
2019-03-27T09:19:03.378Z,55.22
2019-03-27T09:19:44.363Z,55.88
2019-03-27T09:20:24.943Z,56.37
2019-03-27T09:21:05.608Z,55.73
2019-03-27T09:21:47.119Z,55.05
2019-03-27T09:22:27.835Z,54.1
2019-03-27T09:23:08.577Z,54.32
2019-03-27T09:23:50.098Z,53.74
2019-03-27T09:24:30.256Z,52.81
2019-03-27T09:25:11.323Z,50.99
2019-03-27T09:25:52.591Z,49.76
2019-03-27T09:26:32.351Z,49.19
2019-03-27T09:27:12.768Z,49.19
2019-03-27T09:27:53.218Z,49.88
2019-03-27T09:28:33.625Z,48.54
2019-03-27T09:29:14.115Z,48.47
2019-03-27T09:29:54.580Z,47.41
2019-03-27T09:30:35.229Z,46.45
2019-03-27T09:31:16.567Z,45.32
2019-03-27T09:31:57.058Z,45.9
2019-03-27T09:32:36.686Z,45.61